createdAt,value
2022-12-03T00:01:03.516Z,28.60
2022-12-03T00:02:15.227Z,27.13
2022-12-03T00:03:22.179Z,27.77
2022-12-03T00:04:34.406Z,28.02
2022-12-03T00:05:57.301Z,26.83
2022-12-03T00:07:05.392Z,28.95
2022-12-03T00:08:12.268Z,26.75
2022-12-03T00:09:18.618Z,26.95
2022-12-03T00:10:27.979Z,28.63
2022-12-03T00:11:39.538Z,27.73
2022-12-03T00:12:50.320Z,28.27
2022-12-03T00:13:56.724Z,26.80
2022-12-03T00:15:08.429Z,27.90
2022-12-03T00:16:13.455Z,28.45
2022-12-03T00:17:19.852Z,27.48
2022-12-03T00:18:46.453Z,28.23
2022-12-03T00:19:55.252Z,27.23
2022-12-03T00:20:59.519Z,28.60
2022-12-03T00:22:27.255Z,29.27
2022-12-03T00:23:46.227Z,26.92
2022-12-03T00:24:51.873Z,28.08
2022-12-03T00:26:08.157Z,26.88
2022-12-03T00:27:11.241Z,29.50
2022-12-03T00:28:20.148Z,29.27
2022-12-03T00:29:47.773Z,28.40
2022-12-03T00:31:02.420Z,28.15
2022-12-03T00:32:12.015Z,27.60
2022-12-03T00:33:22.646Z,27.88
2022-12-03T00:34:26.639Z,29.42
2022-12-03T00:35:31.526Z,28.95
2022-12-03T00:36:41.613Z,28.60
2022-12-03T00:37:57.206Z,26.95
2022-12-03T00:39:02.933Z,28.30
2022-12-03T00:40:12.568Z,27.92
2022-12-03T00:41:21.557Z,27.58
2022-12-03T00:42:40.624Z,29.55
2022-12-03T00:43:52.537Z,28.15
2022-12-03T00:44:59.078Z,28.92
2022-12-03T00:46:09.361Z,27.25
2022-12-03T00:47:16.531Z,28.92
2022-12-03T00:48:25.973Z,27.83
2022-12-03T00:49:36.379Z,26.38
2022-12-03T00:50:53.358Z,28.60
2022-12-03T00:51:59.958Z,27.98
2022-12-03T00:53:03.579Z,26.73
2022-12-03T00:54:15.149Z,27.33
2022-12-03T00:55:31.903Z,28.38
2022-12-03T00:56:50.844Z,27.63
2022-12-03T00:57:58.754Z,25.95
2022-12-03T00:59:16.356Z,29.55
2022-12-03T01:00:31.052Z,26.95
2022-12-03T01:01:46.364Z,26.67
2022-12-03T01:03:01.255Z,26.52
2022-12-03T01:04:09.164Z,26.95
2022-12-03T01:05:27.039Z,27.10
2022-12-03T01:06:38.032Z,26.10
2022-12-03T01:07:50.832Z,27.05
2022-12-03T01:08:55.654Z,25.55
2022-12-03T01:11:45.310Z,25.67
2022-12-03T01:12:59.516Z,25.77
2022-12-03T01:14:18.466Z,24.98
2022-12-03T01:15:31.188Z,26.83
2022-12-03T01:18:15.454Z,24.88
2022-12-03T01:19:26.910Z,27.10
2022-12-03T01:20:36.823Z,23.30
2022-12-03T01:21:42.405Z,26.10
2022-12-03T01:23:00.387Z,24.98
2022-12-03T01:24:09.971Z,25.60
2022-12-03T01:25:23.289Z,27.42
2022-12-03T01:26:33.247Z,25.52
2022-12-03T01:27:52.470Z,24.73
2022-12-03T01:29:01.308Z,25.05
2022-12-03T01:30:13.362Z,25.73
2022-12-03T01:31:39.665Z,24.92
2022-12-03T01:32:51.734Z,25.58
2022-12-03T01:33:58.203Z,25.20
2022-12-03T01:35:02.700Z,25.77
2022-12-03T01:36:18.182Z,25.48
2022-12-03T01:37:41.284Z,24.30
2022-12-03T01:38:54.201Z,24.20
2022-12-03T01:40:08.265Z,25.25
2022-12-03T01:41:14.397Z,25.05
2022-12-03T01:42:25.789Z,24.20
2022-12-03T01:43:37.178Z,24.05
2022-12-03T01:44:44.685Z,25.17
2022-12-03T01:45:51.906Z,25.58
2022-12-03T01:47:07.166Z,20.65
2022-12-03T01:48:21.768Z,23.58
2022-12-03T01:49:37.872Z,20.50
2022-12-03T01:50:52.450Z,22.38
2022-12-03T01:52:23.521Z,24.50
2022-12-03T01:53:37.514Z,24.52
2022-12-03T01:55:08.707Z,22.65
2022-12-03T01:56:22.127Z,21.55
2022-12-03T01:57:40.186Z,21.90
2022-12-03T01:58:53.654Z,22.95
2022-12-03T02:00:06.206Z,20.85
2022-12-03T02:01:19.313Z,23.33
2022-12-03T02:02:31.700Z,22.52
2022-12-03T02:03:41.411Z,22.92
2022-12-03T02:04:53.968Z,23.40
2022-12-03T02:06:04.483Z,22.45
2022-12-03T02:07:24.309Z,20.98
2022-12-03T02:08:42.823Z,23.73
2022-12-03T02:09:53.649Z,23.80
2022-12-03T02:11:05.751Z,22.60
2022-12-03T02:12:37.442Z,21.80
2022-12-03T02:13:45.546Z,23.80
2022-12-03T02:14:53.426Z,24.20
2022-12-03T02:15:58.690Z,22.40
2022-12-03T02:17:10.362Z,22.58
2022-12-03T02:18:24.439Z,17.60
2022-12-03T02:19:31.332Z,23.45
2022-12-03T02:21:13.341Z,24.63
2022-12-03T02:22:38.087Z,20.90
2022-12-03T02:24:21.155Z,22.85
2022-12-03T02:25:32.774Z,22.35
2022-12-03T02:26:38.519Z,23.38
2022-12-03T02:27:46.127Z,22.85
2022-12-03T02:28:52.870Z,22.13
2022-12-03T02:29:59.191Z,23.58
2022-12-03T02:31:07.599Z,23.75
2022-12-03T02:32:10.667Z,21.10
2022-12-03T02:33:18.795Z,23.85
2022-12-03T02:34:37.771Z,23.13
2022-12-03T02:35:40.521Z,24.85
2022-12-03T02:36:47.388Z,23.83
2022-12-03T02:38:00.242Z,22.75
2022-12-03T02:39:06.210Z,22.52
2022-12-03T02:40:21.100Z,24.13
2022-12-03T02:41:43.140Z,24.23
2022-12-03T02:42:57.032Z,22.60
2022-12-03T02:44:00.598Z,23.95
2022-12-03T02:45:06.011Z,24.23
2022-12-03T02:46:10.768Z,25.02
2022-12-03T02:47:19.479Z,24.20
2022-12-03T02:48:42.400Z,22.80
2022-12-03T02:49:45.123Z,23.08
2022-12-03T02:50:53.982Z,21.20
2022-12-03T02:51:56.906Z,23.45
2022-12-03T02:53:05.191Z,23.08
2022-12-03T02:54:09.302Z,23.88
2022-12-03T02:55:19.808Z,24.90
2022-12-03T02:56:28.095Z,20.35
2022-12-03T02:57:31.771Z,22.15
2022-12-03T02:58:34.464Z,25.05
2022-12-03T02:59:37.613Z,24.38
2022-12-03T03:00:42.770Z,22.00
2022-12-03T03:01:45.468Z,25.27
2022-12-03T03:02:48.087Z,26.27
2022-12-03T03:03:54.034Z,26.08
2022-12-03T03:04:59.385Z,24.05
2022-12-03T03:06:04.659Z,26.05
2022-12-03T03:07:09.283Z,22.95
2022-12-03T03:08:15.513Z,24.35
2022-12-03T03:09:19.005Z,23.65
2022-12-03T03:10:26.330Z,24.27
2022-12-03T03:11:37.121Z,22.13
2022-12-03T03:12:39.633Z,22.80
2022-12-03T03:13:42.718Z,24.85
2022-12-03T03:14:45.186Z,24.45
2022-12-03T03:15:50.971Z,24.08
2022-12-03T03:16:56.352Z,24.90
2022-12-03T03:18:01.474Z,24.10
2022-12-03T03:19:05.294Z,24.40
2022-12-03T03:20:10.564Z,25.42
2022-12-03T03:21:13.649Z,25.10
2022-12-03T03:22:18.059Z,27.10
2022-12-03T03:23:22.719Z,23.50
2022-12-03T03:24:28.005Z,24.17
2022-12-03T03:25:31.179Z,24.10
2022-12-03T03:26:34.705Z,22.13
2022-12-03T03:27:37.395Z,24.58
2022-12-03T03:28:45.235Z,24.92
2022-12-03T03:29:52.026Z,24.08
2022-12-03T03:30:56.134Z,24.02
2022-12-03T03:32:00.984Z,22.15
2022-12-03T03:33:07.436Z,24.85
2022-12-03T03:34:15.350Z,21.02
2022-12-03T03:35:20.993Z,22.75
2022-12-03T03:36:30.389Z,23.65
2022-12-03T03:37:33.054Z,24.05
2022-12-03T03:38:36.853Z,24.40
2022-12-03T03:39:41.229Z,25.90
2022-12-03T03:40:44.006Z,23.88
2022-12-03T03:41:47.039Z,22.52
2022-12-03T03:42:51.472Z,24.23
2022-12-03T03:44:14.377Z,23.83
2022-12-03T03:45:53.299Z,23.95
2022-12-03T03:46:57.375Z,23.10
2022-12-03T03:48:02.007Z,22.38
2022-12-03T03:49:06.493Z,22.90
2022-12-03T03:50:12.899Z,22.88
2022-12-03T03:51:22.108Z,20.83
2022-12-03T03:52:26.804Z,22.77
2022-12-03T03:53:31.126Z,21.85
2022-12-03T03:54:33.654Z,24.13
2022-12-03T03:55:40.014Z,24.13
2022-12-03T03:56:51.855Z,23.13
2022-12-03T03:57:54.971Z,20.02
2022-12-03T03:58:58.798Z,24.70
2022-12-03T04:00:01.291Z,22.40
2022-12-03T04:01:13.112Z,23.65
2022-12-03T04:02:20.429Z,21.27
2022-12-03T04:03:23.923Z,23.10
2022-12-03T04:04:36.738Z,21.23
2022-12-03T04:05:39.886Z,22.77
2022-12-03T04:06:42.250Z,21.30
2022-12-03T04:07:45.148Z,22.48
2022-12-03T04:08:47.975Z,23.33
2022-12-03T04:09:50.646Z,21.83
2022-12-03T04:11:12.966Z,23.35
2022-12-03T04:12:36.769Z,22.25
2022-12-03T04:13:43.967Z,21.48
2022-12-03T04:14:47.436Z,21.98
2022-12-03T04:15:55.096Z,22.02
2022-12-03T04:16:57.855Z,20.80
2022-12-03T04:18:22.373Z,21.05
2022-12-03T04:19:24.578Z,21.48
2022-12-03T04:20:29.490Z,20.95
2022-12-03T04:21:52.803Z,21.80
2022-12-03T04:22:55.925Z,19.98
2022-12-03T04:23:58.329Z,22.13
2022-12-03T04:25:20.827Z,21.23
2022-12-03T04:26:41.520Z,21.00
2022-12-03T04:28:04.893Z,20.25
2022-12-03T04:29:07.457Z,20.20
2022-12-03T04:30:10.549Z,20.67
2022-12-03T04:31:32.437Z,22.77
2022-12-03T04:32:55.051Z,21.48
2022-12-03T04:34:16.366Z,19.10
2022-12-03T04:35:38.058Z,20.27
2022-12-03T04:36:49.594Z,20.20
2022-12-03T04:37:57.836Z,20.90
2022-12-03T04:38:59.956Z,19.85
2022-12-03T04:40:28.739Z,21.85
2022-12-03T04:41:31.955Z,20.05
2022-12-03T04:42:35.666Z,19.60
2022-12-03T04:43:59.486Z,19.33
2022-12-03T04:45:05.500Z,20.60
2022-12-03T04:46:10.712Z,21.20
2022-12-03T04:47:19.558Z,21.60
2022-12-03T04:48:27.265Z,20.67
2022-12-03T04:49:30.117Z,21.60
2022-12-03T04:50:33.427Z,20.65
2022-12-03T04:51:36.229Z,21.75
2022-12-03T04:52:40.786Z,21.58
2022-12-03T04:53:46.180Z,22.17
2022-12-03T04:54:53.175Z,20.95
2022-12-03T04:56:00.960Z,19.83
2022-12-03T04:57:03.951Z,21.83
2022-12-03T04:58:06.848Z,22.17
2022-12-03T04:59:15.606Z,22.00
2022-12-03T05:00:18.476Z,20.45
2022-12-03T05:01:23.693Z,22.02
2022-12-03T05:02:25.979Z,20.60
2022-12-03T05:03:28.822Z,20.88
2022-12-03T05:04:35.083Z,19.67
2022-12-03T05:05:38.252Z,20.05
2022-12-03T05:06:41.358Z,21.42
2022-12-03T05:07:45.352Z,20.67
2022-12-03T05:08:48.574Z,23.58
2022-12-03T05:09:53.834Z,21.88
2022-12-03T05:10:59.552Z,21.63
2022-12-03T05:12:02.690Z,21.63
2022-12-03T05:13:05.330Z,21.60
2022-12-03T05:14:08.175Z,23.02
2022-12-03T05:15:11.115Z,20.42
2022-12-03T05:16:16.105Z,21.98
2022-12-03T05:17:20.179Z,21.08
2022-12-03T05:18:24.205Z,21.90
2022-12-03T05:19:47.589Z,19.52
2022-12-03T05:20:53.890Z,19.15
2022-12-03T05:23:03.822Z,19.05
2022-12-03T05:24:07.251Z,20.25
2022-12-03T05:25:11.332Z,18.65
2022-12-03T05:26:16.578Z,21.30
2022-12-03T05:27:23.507Z,21.60
2022-12-03T05:28:27.764Z,21.15
2022-12-03T05:29:30.271Z,20.65
2022-12-03T05:30:34.786Z,20.35
2022-12-03T05:31:38.216Z,20.65
2022-12-03T05:32:42.043Z,19.77
2022-12-03T05:33:44.907Z,21.13
2022-12-03T05:34:51.623Z,20.48
2022-12-03T05:35:54.673Z,20.45
2022-12-03T05:37:04.460Z,21.17
2022-12-03T05:38:15.638Z,20.30
2022-12-03T05:39:18.971Z,19.08
2022-12-03T05:40:24.870Z,20.80
2022-12-03T05:41:47.126Z,19.88
2022-12-03T05:42:57.309Z,18.58
2022-12-03T05:44:00.383Z,18.90
2022-12-03T05:45:10.606Z,20.92
2022-12-03T05:46:20.797Z,19.55
2022-12-03T05:47:25.589Z,19.90
2022-12-03T05:48:31.923Z,21.73
2022-12-03T05:49:34.293Z,19.75
2022-12-03T05:50:39.763Z,21.40
2022-12-03T05:51:58.147Z,19.25
2022-12-03T05:53:02.186Z,20.05
2022-12-03T05:54:05.767Z,21.65
2022-12-03T05:55:10.927Z,20.20
2022-12-03T05:56:14.224Z,18.98
2022-12-03T05:57:16.643Z,21.58
2022-12-03T05:58:20.926Z,22.08
2022-12-03T05:59:23.143Z,22.08
2022-12-03T06:00:30.615Z,19.95
2022-12-03T06:01:34.566Z,20.50
2022-12-03T06:02:38.454Z,20.52
2022-12-03T06:03:43.287Z,21.25
2022-12-03T06:04:48.227Z,20.42
2022-12-03T06:05:53.356Z,21.00
2022-12-03T06:07:00.637Z,22.33
2022-12-03T06:08:03.848Z,20.08
2022-12-03T06:09:09.145Z,20.92
2022-12-03T06:10:17.283Z,21.35
2022-12-03T06:11:24.657Z,21.13
2022-12-03T06:12:29.064Z,18.52
2022-12-03T06:13:35.157Z,20.25
2022-12-03T06:14:41.140Z,23.70
2022-12-03T06:15:46.576Z,21.60
2022-12-03T06:16:52.892Z,19.83
2022-12-03T06:17:56.714Z,17.65
2022-12-03T06:19:04.071Z,18.13
2022-12-03T06:20:34.083Z,20.10
2022-12-03T06:21:37.940Z,20.65
2022-12-03T06:22:45.554Z,21.13
2022-12-03T06:23:48.750Z,21.05
2022-12-03T06:25:02.085Z,21.20
2022-12-03T06:26:09.629Z,19.30
2022-12-03T06:27:16.101Z,21.20
2022-12-03T06:28:24.105Z,20.92
2022-12-03T06:29:27.256Z,19.98
2022-12-03T06:30:31.659Z,19.45
2022-12-03T06:31:35.370Z,20.60
2022-12-03T06:32:38.526Z,21.08
2022-12-03T06:33:45.943Z,20.30
2022-12-03T06:35:01.662Z,21.10
2022-12-03T06:36:05.448Z,20.75
2022-12-03T06:37:08.849Z,20.45
2022-12-03T06:38:13.997Z,19.98
2022-12-03T06:39:22.632Z,21.42
2022-12-03T06:40:46.632Z,19.83
2022-12-03T06:41:50.304Z,19.95
2022-12-03T06:42:54.482Z,20.60
2022-12-03T06:43:57.648Z,19.90
2022-12-03T06:45:02.286Z,20.55
2022-12-03T06:46:10.664Z,20.55
2022-12-03T06:47:17.350Z,19.70
2022-12-03T06:48:21.607Z,20.40
2022-12-03T06:49:30.291Z,21.08
2022-12-03T06:50:35.379Z,20.10
2022-12-03T06:51:40.124Z,20.15
2022-12-03T06:52:42.303Z,18.80
2022-12-03T06:53:48.751Z,20.00
2022-12-03T06:54:54.738Z,21.08
2022-12-03T06:56:05.457Z,19.80
2022-12-03T06:57:10.130Z,18.90
2022-12-03T06:58:21.816Z,17.83
2022-12-03T07:00:10.538Z,19.48
2022-12-03T07:01:20.524Z,19.42
2022-12-03T07:03:32.244Z,19.83
2022-12-03T07:04:35.449Z,19.60
2022-12-03T07:05:42.438Z,18.70
2022-12-03T07:06:47.163Z,20.38
2022-12-03T07:07:53.568Z,18.92
2022-12-03T07:09:01.017Z,18.98
2022-12-03T07:10:10.617Z,20.25
2022-12-03T07:11:50.876Z,19.50
2022-12-03T07:13:14.307Z,19.70
2022-12-03T07:14:21.531Z,19.88
2022-12-03T07:15:24.697Z,20.00
2022-12-03T07:16:30.222Z,18.20
2022-12-03T07:17:33.290Z,19.15
2022-12-03T07:18:40.872Z,20.48
2022-12-03T07:19:44.233Z,19.00
2022-12-03T07:20:57.321Z,19.30
2022-12-03T07:22:10.464Z,20.38
2022-12-03T07:23:13.298Z,19.38
2022-12-03T07:24:16.117Z,18.88
2022-12-03T07:26:29.588Z,19.30
2022-12-03T07:29:24.826Z,17.20
2022-12-03T07:33:05.241Z,19.67
2022-12-03T07:34:12.496Z,19.40
2022-12-03T07:35:47.627Z,20.05
2022-12-03T07:36:55.687Z,18.02
2022-12-03T07:38:25.452Z,19.25
2022-12-03T07:39:31.621Z,20.98
2022-12-03T07:40:37.381Z,21.88
2022-12-03T07:41:42.474Z,18.50
2022-12-03T07:44:17.518Z,18.70
2022-12-03T07:45:21.553Z,19.17
2022-12-03T07:46:32.331Z,20.33
2022-12-03T07:47:36.309Z,19.92
2022-12-03T07:48:41.368Z,20.27
2022-12-03T07:49:46.368Z,19.80
2022-12-03T07:50:55.267Z,19.65
2022-12-03T07:52:00.609Z,20.85
2022-12-03T07:53:08.844Z,20.85
2022-12-03T07:54:14.381Z,21.48
2022-12-03T07:55:22.316Z,20.73
2022-12-03T07:56:29.569Z,21.08
2022-12-03T07:57:52.844Z,21.35
2022-12-03T07:58:59.773Z,19.60
2022-12-03T08:00:08.750Z,21.70
2022-12-03T08:01:14.263Z,20.67
2022-12-03T08:02:21.604Z,21.52
2022-12-03T08:04:33.077Z,20.67
2022-12-03T08:05:39.211Z,22.02
2022-12-03T08:06:45.226Z,21.42
2022-12-03T08:07:49.996Z,23.17
2022-12-03T08:09:00.832Z,21.70
2022-12-03T08:10:11.430Z,19.35
2022-12-03T08:11:16.399Z,20.45
2022-12-03T08:19:29.776Z,19.13
2022-12-03T08:20:39.037Z,20.42
2022-12-03T08:21:46.503Z,21.55
2022-12-03T08:22:52.225Z,20.73
2022-12-03T08:23:58.552Z,20.85
2022-12-03T08:25:26.365Z,21.48
2022-12-03T08:26:41.125Z,21.25
2022-12-03T08:27:52.267Z,20.77
2022-12-03T08:29:02.052Z,19.75
2022-12-03T08:30:17.894Z,21.23
2022-12-03T08:31:33.468Z,21.00
2022-12-03T08:32:40.306Z,21.02
2022-12-03T08:33:44.782Z,22.95
2022-12-03T08:34:49.231Z,21.88
2022-12-03T08:35:53.167Z,22.23
2022-12-03T08:37:14.202Z,22.30
2022-12-03T08:38:27.860Z,21.58
2022-12-03T08:39:40.263Z,22.33
2022-12-03T08:42:45.439Z,22.15
2022-12-03T08:43:56.508Z,22.75
2022-12-03T08:45:41.238Z,26.88
2022-12-03T08:47:15.069Z,21.08
2022-12-03T08:48:34.930Z,22.23
2022-12-03T08:49:50.230Z,23.65
2022-12-03T08:51:10.178Z,22.88
2022-12-03T08:52:22.638Z,21.58
2022-12-03T08:53:37.895Z,23.52
2022-12-03T08:54:45.298Z,22.02
2022-12-03T08:55:58.336Z,22.50
2022-12-03T08:57:23.272Z,23.90
2022-12-03T08:58:50.325Z,22.40
2022-12-03T09:00:22.420Z,21.65
2022-12-03T09:01:50.721Z,20.88
2022-12-03T09:03:04.941Z,21.17
2022-12-03T09:04:21.883Z,23.15
2022-12-03T09:05:35.490Z,20.52
2022-12-03T09:08:54.532Z,21.67
2022-12-03T09:10:09.032Z,23.25
2022-12-03T09:11:41.449Z,22.48
2022-12-03T09:13:03.837Z,20.50
2022-12-03T09:15:29.240Z,19.73
2022-12-03T09:16:40.447Z,21.13
2022-12-03T09:18:17.565Z,22.75
2022-12-03T09:34:11.195Z,20.05
2022-12-03T09:38:46.206Z,22.80
2022-12-03T10:22:40.857Z,19.58
2022-12-03T10:24:09.388Z,21.65
2022-12-03T10:26:40.071Z,18.92
2022-12-03T10:28:09.414Z,20.67
2022-12-03T10:29:13.669Z,24.83
2022-12-03T10:30:23.747Z,21.45
2022-12-03T10:31:36.734Z,22.42
2022-12-03T10:33:37.690Z,21.75
2022-12-03T10:34:49.827Z,19.80
2022-12-03T10:35:56.790Z,18.60
2022-12-03T10:37:31.621Z,18.42
2022-12-03T10:39:09.977Z,19.25
2022-12-03T10:40:26.497Z,19.25
2022-12-03T10:41:41.937Z,20.95
2022-12-03T10:42:53.887Z,20.65
2022-12-03T10:44:26.538Z,19.75
2022-12-03T10:47:17.568Z,20.95
2022-12-03T10:48:27.959Z,21.27
2022-12-03T10:49:32.393Z,19.13
2022-12-03T10:50:39.160Z,19.20
2022-12-03T10:51:44.632Z,20.05
2022-12-03T10:52:50.671Z,18.40
2022-12-03T10:54:10.157Z,19.05
2022-12-03T10:55:17.007Z,19.85
2022-12-03T10:56:27.205Z,20.27
2022-12-03T10:57:39.985Z,19.30
2022-12-03T10:58:47.072Z,20.67
2022-12-03T11:00:15.718Z,20.05
2022-12-03T11:01:45.744Z,18.60
2022-12-03T11:02:57.153Z,19.38
2022-12-03T11:04:39.672Z,17.02
2022-12-03T11:05:51.566Z,20.33
2022-12-03T11:07:03.918Z,18.20
2022-12-03T11:08:08.110Z,18.85
2022-12-03T11:09:21.206Z,19.92
2022-12-03T11:10:28.550Z,19.20
2022-12-03T11:11:33.341Z,18.75
2022-12-03T11:12:43.480Z,20.50
2022-12-03T11:14:23.021Z,20.13
2022-12-03T11:15:45.208Z,18.85
2022-12-03T11:17:14.185Z,18.85
2022-12-03T11:18:41.048Z,18.05
2022-12-03T11:20:28.114Z,18.25
2022-12-03T11:21:35.785Z,17.40
2022-12-03T11:22:42.570Z,18.55
2022-12-03T11:23:52.891Z,17.88
2022-12-03T11:25:38.463Z,19.48
2022-12-03T11:26:42.259Z,18.48
2022-12-03T11:28:21.037Z,20.92
2022-12-03T11:29:59.938Z,18.10
2022-12-03T11:40:26.244Z,19.38
2022-12-03T11:41:36.590Z,19.13
2022-12-03T11:42:42.038Z,20.60
2022-12-03T11:43:55.079Z,19.65
2022-12-03T11:45:09.547Z,21.00
2022-12-03T11:46:27.697Z,19.63
2022-12-03T11:48:06.409Z,19.88
2022-12-03T11:49:40.431Z,18.60
2022-12-03T11:50:56.354Z,18.52
2022-12-03T11:52:05.116Z,17.58
2022-12-03T11:53:18.208Z,18.52
2022-12-03T11:54:25.195Z,18.08
2022-12-03T11:55:37.122Z,17.45
2022-12-03T11:56:49.540Z,18.85
2022-12-03T11:58:09.184Z,18.77
2022-12-03T11:59:18.747Z,19.33
2022-12-03T12:00:25.123Z,18.42
2022-12-03T12:01:39.836Z,15.45
2022-12-03T12:02:46.257Z,17.30
2022-12-03T12:03:55.991Z,19.13
2022-12-03T12:05:18.158Z,18.05
2022-12-03T12:07:40.577Z,16.13
2022-12-03T12:08:52.204Z,17.83
2022-12-03T12:09:56.474Z,16.77
2022-12-03T12:11:16.528Z,18.38
2022-12-03T12:12:30.048Z,17.45
2022-12-03T12:13:40.806Z,18.75
2022-12-03T12:14:48.941Z,17.52
2022-12-03T12:15:53.384Z,18.70
2022-12-03T12:17:03.570Z,17.52
2022-12-03T12:18:45.043Z,18.75
2022-12-03T12:19:54.209Z,19.45
2022-12-03T12:21:35.396Z,18.42
2022-12-03T12:22:53.292Z,18.10
2022-12-03T12:24:01.725Z,20.50
2022-12-03T12:25:40.227Z,19.85
2022-12-03T12:26:55.374Z,18.67
2022-12-03T12:28:00.240Z,20.42
2022-12-03T12:29:11.586Z,20.77
2022-12-03T12:30:22.110Z,17.05
2022-12-03T12:31:24.222Z,20.15
2022-12-03T12:32:31.741Z,19.55
2022-12-03T12:33:36.299Z,20.48
2022-12-03T12:35:16.086Z,21.80
2022-12-03T12:36:35.808Z,20.02
2022-12-03T12:38:07.534Z,19.75
2022-12-03T12:39:15.084Z,19.85
2022-12-03T12:40:18.752Z,19.23
2022-12-03T12:41:24.442Z,19.63
2022-12-03T12:42:38.706Z,19.73
2022-12-03T12:43:43.185Z,19.60
2022-12-03T12:44:45.986Z,17.75
2022-12-03T12:45:52.496Z,19.40
2022-12-03T12:46:55.671Z,18.45
2022-12-03T12:48:10.675Z,17.35
2022-12-03T12:49:26.943Z,17.00
2022-12-03T12:50:33.718Z,18.48
2022-12-03T12:51:49.785Z,16.83
2022-12-03T12:53:06.461Z,18.02
2022-12-03T12:54:13.193Z,16.50
2022-12-03T12:55:20.611Z,18.90
2022-12-03T12:56:30.505Z,18.52
2022-12-03T12:57:39.130Z,19.27
2022-12-03T12:59:15.472Z,17.85
2022-12-03T13:00:23.906Z,18.05
2022-12-03T13:01:35.732Z,17.88
2022-12-03T13:02:45.649Z,18.50
2022-12-03T13:03:54.429Z,17.83
2022-12-03T13:05:03.049Z,17.70
2022-12-03T13:06:07.761Z,18.67
2022-12-03T13:07:19.421Z,17.55
2022-12-03T13:08:40.655Z,19.20
2022-12-03T13:09:44.124Z,17.33
2022-12-03T13:10:49.334Z,18.42
2022-12-03T13:12:09.205Z,18.60
2022-12-03T13:13:24.228Z,18.30
2022-12-03T13:14:38.316Z,17.80
2022-12-03T13:16:54.537Z,17.40
2022-12-03T13:18:24.177Z,17.38
2022-12-03T13:20:05.149Z,16.75
2022-12-03T13:21:36.521Z,19.85
2022-12-03T13:29:30.705Z,14.00
2022-12-03T13:30:19.006Z,12.10
2022-12-03T13:31:47.396Z,12.18
2022-12-03T13:32:55.519Z,12.65
2022-12-03T13:35:24.653Z,13.65
2022-12-03T13:36:39.728Z,13.45
2022-12-03T13:37:42.086Z,13.27
2022-12-03T13:38:46.317Z,14.00
2022-12-03T13:39:53.611Z,14.68
2022-12-03T13:41:05.555Z,14.68
2022-12-03T13:42:40.915Z,13.75
2022-12-03T13:43:44.673Z,13.30
2022-12-03T13:44:49.616Z,17.77
2022-12-03T13:45:54.518Z,14.52
2022-12-03T13:47:11.018Z,14.05
2022-12-03T13:48:24.016Z,14.73
2022-12-03T13:49:29.171Z,15.02
2022-12-03T13:50:46.260Z,13.55
2022-12-03T13:51:51.566Z,13.95
2022-12-03T13:53:24.757Z,12.95
2022-12-03T13:54:30.212Z,19.27
2022-12-03T13:55:36.318Z,15.15
2022-12-03T13:57:07.311Z,15.98
2022-12-03T13:58:20.564Z,12.73
2022-12-03T13:59:53.553Z,12.82
2022-12-03T14:00:58.505Z,12.98
2022-12-03T14:02:13.748Z,14.18
2022-12-03T14:03:52.773Z,13.05
2022-12-03T14:05:04.257Z,13.00
2022-12-03T14:06:06.938Z,14.38
2022-12-03T14:07:10.767Z,13.07
2022-12-03T14:08:12.979Z,13.15
2022-12-03T14:09:15.638Z,13.90
2022-12-03T14:10:18.519Z,14.55
2022-12-03T14:11:39.331Z,15.65
2022-12-03T14:12:44.394Z,15.00
2022-12-03T14:14:06.984Z,16.25
2022-12-03T14:15:13.068Z,16.08
2022-12-03T14:16:16.293Z,16.92
2022-12-03T14:17:24.008Z,18.10
2022-12-03T14:18:30.776Z,23.42
2022-12-03T14:19:34.430Z,18.80
2022-12-03T14:20:37.538Z,19.27
2022-12-03T14:23:14.833Z,19.48
2022-12-03T14:24:19.158Z,18.63
2022-12-03T14:25:22.961Z,18.33
2022-12-03T14:26:29.606Z,15.00
2022-12-03T14:27:38.717Z,18.10
2022-12-03T14:29:08.907Z,16.45
2022-12-03T14:30:15.206Z,17.23
2022-12-03T14:31:18.532Z,20.13
2022-12-03T14:32:26.678Z,22.30
2022-12-03T14:33:30.918Z,19.63
2022-12-03T14:34:37.189Z,18.90
2022-12-03T14:35:42.110Z,25.33
2022-12-03T14:36:47.774Z,17.75
2022-12-03T14:37:53.771Z,19.10
2022-12-03T14:39:10.082Z,17.27
2022-12-03T14:40:21.178Z,17.67
2022-12-03T14:41:59.966Z,17.65
2022-12-03T14:43:03.960Z,16.55
2022-12-03T14:44:24.124Z,16.52
2022-12-03T14:45:30.252Z,15.65
2022-12-03T14:46:35.590Z,15.63
2022-12-03T14:47:46.753Z,14.98
2022-12-03T14:48:49.948Z,15.95
2022-12-03T14:49:53.230Z,16.88
2022-12-03T14:51:15.765Z,14.82
2022-12-03T14:52:19.280Z,15.10
2022-12-03T14:53:27.184Z,12.90
2022-12-03T14:54:31.048Z,16.25
2022-12-03T14:55:32.954Z,14.95
2022-12-03T14:56:36.203Z,15.15
2022-12-03T14:57:38.603Z,15.55
2022-12-03T14:58:43.250Z,15.45
2022-12-03T14:59:47.225Z,15.52
2022-12-03T15:00:50.697Z,14.93
2022-12-03T15:01:59.411Z,13.65
2022-12-03T15:03:06.469Z,16.35
2022-12-03T15:04:09.390Z,14.60
2022-12-03T15:05:28.305Z,15.68
2022-12-03T15:06:40.257Z,15.77
2022-12-03T15:07:53.383Z,16.30
2022-12-03T15:08:56.841Z,15.77
2022-12-03T15:10:16.673Z,16.52
2022-12-03T15:13:49.695Z,15.95
2022-12-03T15:14:44.618Z,15.63
2022-12-03T15:15:50.787Z,16.35
2022-12-03T15:16:52.838Z,16.05
2022-12-03T15:17:55.102Z,22.42
2022-12-03T15:18:57.096Z,16.42
2022-12-03T15:20:00.041Z,18.67
2022-12-03T15:21:02.786Z,17.17
2022-12-03T15:22:06.644Z,19.27
2022-12-03T15:23:14.057Z,18.05
2022-12-03T15:24:30.717Z,18.92
2022-12-03T15:25:48.464Z,17.73
2022-12-03T15:26:53.667Z,16.20
2022-12-03T15:28:07.939Z,18.30
2022-12-03T15:29:18.437Z,16.98
2022-12-03T15:31:05.904Z,20.23
2022-12-03T15:32:53.994Z,19.52
2022-12-03T15:33:57.813Z,25.80
2022-12-03T15:35:01.890Z,23.52
2022-12-03T15:36:18.006Z,20.73
2022-12-03T15:37:37.203Z,24.83
2022-12-03T15:38:40.787Z,19.25
2022-12-03T15:39:52.363Z,18.20
2022-12-03T15:40:55.815Z,17.33
2022-12-03T15:41:58.911Z,19.88
2022-12-03T15:43:19.107Z,19.40
2022-12-03T15:44:35.957Z,23.40
2022-12-03T15:45:46.577Z,25.17
2022-12-03T15:46:49.638Z,32.50
2022-12-03T15:48:00.593Z,23.27
2022-12-03T15:49:08.531Z,41.30
2022-12-03T15:50:24.868Z,20.35
2022-12-03T15:51:39.547Z,18.80
2022-12-03T15:53:09.392Z,24.58
2022-12-03T15:54:25.611Z,18.92
2022-12-03T15:55:31.190Z,20.90
2022-12-03T15:56:42.604Z,19.77
2022-12-03T15:57:46.012Z,22.23
2022-12-03T15:58:54.069Z,23.38
2022-12-03T15:59:58.529Z,21.00
2022-12-03T16:01:03.248Z,21.00
2022-12-03T16:02:08.042Z,33.35
2022-12-03T16:03:13.589Z,17.65
2022-12-03T16:04:18.222Z,20.60
2022-12-03T16:05:50.635Z,20.70
2022-12-03T16:06:59.531Z,21.38
2022-12-03T16:11:17.911Z,17.38
2022-12-03T16:12:22.494Z,15.95
2022-12-03T16:13:29.572Z,13.00
2022-12-03T16:14:40.463Z,13.90
2022-12-03T16:15:48.404Z,39.95
2022-12-03T16:16:55.303Z,16.67
2022-12-03T16:18:04.542Z,15.30
2022-12-03T16:20:17.978Z,12.18
2022-12-03T16:23:00.463Z,12.02
2022-12-03T16:24:23.834Z,14.65
2022-12-03T16:25:27.088Z,13.18
2022-12-03T16:26:29.596Z,12.80
2022-12-03T16:27:32.066Z,12.15
2022-12-03T16:29:37.998Z,16.08
2022-12-03T16:31:04.777Z,12.10
2022-12-03T16:32:30.200Z,12.02
2022-12-03T16:33:36.836Z,19.00
2022-12-03T16:34:43.543Z,11.65
2022-12-03T16:35:47.576Z,9.32
2022-12-03T16:36:53.206Z,10.50
2022-12-03T16:37:56.625Z,11.88
2022-12-03T16:39:01.057Z,11.40
2022-12-03T16:40:15.942Z,12.43
2022-12-03T16:41:20.101Z,10.48
2022-12-03T16:42:35.674Z,12.23
2022-12-03T16:43:47.736Z,13.45
2022-12-03T16:45:08.765Z,13.40
2022-12-03T16:46:15.621Z,9.48
2022-12-03T16:47:38.650Z,11.82
2022-12-03T16:48:44.370Z,13.60
2022-12-03T16:49:47.370Z,13.27
2022-12-03T16:50:49.531Z,11.10
2022-12-03T16:51:53.672Z,14.48
2022-12-03T16:52:58.597Z,11.95
2022-12-03T16:54:03.223Z,11.93
2022-12-03T16:55:07.766Z,11.25
2022-12-03T16:56:10.219Z,10.98
2022-12-03T16:57:13.166Z,15.02
2022-12-03T16:58:15.543Z,17.30
2022-12-03T16:59:17.651Z,10.98
2022-12-03T17:04:54.807Z,10.98
2022-12-03T17:06:02.936Z,10.18
2022-12-03T17:07:07.871Z,10.75
2022-12-03T17:08:22.774Z,11.75
2022-12-03T17:09:32.853Z,11.23
2022-12-03T17:10:44.760Z,11.98
2022-12-03T17:11:56.362Z,11.18
2022-12-03T17:13:09.272Z,11.30
2022-12-03T17:14:15.170Z,11.27
2022-12-03T17:15:17.602Z,10.70
2022-12-03T17:16:47.350Z,11.82